createdAt,value
2018-09-15T00:01:04.929Z,100.00
2018-09-15T00:03:33.999Z,100.00
2018-09-15T00:06:03.028Z,100.00
2018-09-15T00:08:32.089Z,100.00
2018-09-15T00:11:01.157Z,100.00
2018-09-15T00:13:30.281Z,100.00
2018-09-15T00:15:59.775Z,100.00
2018-09-15T00:18:29.625Z,100.00
2018-09-15T00:20:58.605Z,100.00
2018-09-15T00:23:27.677Z,100.00
2018-09-15T00:25:56.635Z,100.00
2018-09-15T00:28:25.650Z,100.00
2018-09-15T00:30:54.714Z,100.00
2018-09-15T00:33:23.796Z,100.00
2018-09-15T00:35:52.819Z,100.00
2018-09-15T00:38:21.780Z,100.00
2018-09-15T00:40:50.922Z,100.00
2018-09-15T00:43:19.986Z,100.00
2018-09-15T00:45:49.046Z,100.00
2018-09-15T00:48:18.208Z,100.00
2018-09-15T00:50:47.192Z,100.00
2018-09-15T00:53:16.852Z,100.00
2018-09-15T00:55:45.942Z,100.00
2018-09-15T00:58:15.004Z,100.00
2018-09-15T01:00:44.038Z,100.00
2018-09-15T01:03:13.093Z,100.00
2018-09-15T01:05:42.173Z,100.00
2018-09-15T01:08:11.201Z,100.00
2018-09-15T01:10:40.335Z,100.00
2018-09-15T01:13:10.147Z,100.00
2018-09-15T01:15:39.444Z,100.00
2018-09-15T01:18:08.873Z,100.00
2018-09-15T01:20:39.418Z,100.00
2018-09-15T01:23:08.863Z,100.00
2018-09-15T01:25:37.907Z,100.00
2018-09-15T01:28:06.970Z,100.00
2018-09-15T01:30:36.682Z,100.00
2018-09-15T01:33:06.282Z,100.00
2018-09-15T01:35:35.664Z,100.00
2018-09-15T01:38:05.246Z,100.00
2018-09-15T01:40:34.678Z,100.00
2018-09-15T01:43:04.152Z,100.00
2018-09-15T01:45:33.700Z,100.00
2018-09-15T01:48:03.541Z,100.00
2018-09-15T01:50:32.926Z,100.00
2018-09-15T01:53:01.949Z,100.00
2018-09-15T01:55:31.156Z,100.00
2018-09-15T01:58:00.370Z,100.00
2018-09-15T02:00:29.525Z,100.00
2018-09-15T02:02:58.838Z,100.00
2018-09-15T02:05:28.197Z,100.00
2018-09-15T02:07:57.306Z,100.00
2018-09-15T02:10:26.450Z,100.00
2018-09-15T02:12:55.641Z,100.00
2018-09-15T02:15:24.757Z,100.00
2018-09-15T02:17:53.897Z,100.00
2018-09-15T02:20:22.930Z,100.00
2018-09-15T02:22:52.017Z,100.00
2018-09-15T02:25:21.260Z,100.00
2018-09-15T02:27:50.407Z,100.00
2018-09-15T02:30:19.433Z,100.00
2018-09-15T02:32:48.444Z,100.00
2018-09-15T02:35:17.507Z,100.00
2018-09-15T02:37:46.571Z,100.00
2018-09-15T02:40:15.904Z,100.00
2018-09-15T02:42:44.900Z,100.00
2018-09-15T02:45:13.933Z,100.00
2018-09-15T02:47:43.265Z,100.00
2018-09-15T02:50:12.399Z,100.00
2018-09-15T02:52:41.510Z,100.00
2018-09-15T02:55:10.667Z,100.00
2018-09-15T02:57:40.061Z,100.00
2018-09-15T03:00:09.154Z,100.00
2018-09-15T03:02:38.193Z,100.00
2018-09-15T03:05:07.339Z,100.00
2018-09-15T03:07:36.419Z,100.00
2018-09-15T03:10:06.290Z,100.00
2018-09-15T03:12:35.756Z,100.00
2018-09-15T03:15:05.477Z,100.00
2018-09-15T03:17:34.813Z,100.00
2018-09-15T03:20:04.246Z,100.00
2018-09-15T03:22:33.741Z,100.00
2018-09-15T03:25:03.631Z,100.00
2018-09-15T03:27:34.067Z,100.00
2018-09-15T03:30:03.329Z,100.00
2018-09-15T03:32:32.570Z,100.00
2018-09-15T03:35:02.088Z,100.00
2018-09-15T03:37:32.019Z,100.00
2018-09-15T03:40:01.360Z,100.00
2018-09-15T03:42:30.643Z,100.00
2018-09-15T03:45:00.503Z,100.00
2018-09-15T03:47:29.979Z,100.00
2018-09-15T03:49:59.006Z,100.00
2018-09-15T03:52:27.994Z,100.00
2018-09-15T03:54:57.065Z,100.00
2018-09-15T03:57:26.194Z,100.00
2018-09-15T03:59:55.723Z,100.00
2018-09-15T04:02:24.965Z,100.00
2018-09-15T04:04:54.421Z,100.00
2018-09-15T04:07:23.952Z,100.00
2018-09-15T04:09:53.378Z,100.00
2018-09-15T04:12:23.016Z,100.00
2018-09-15T04:14:52.309Z,100.00
2018-09-15T04:17:21.816Z,100.00
2018-09-15T04:19:51.303Z,100.00
2018-09-15T04:22:20.670Z,100.00
2018-09-15T04:24:50.014Z,100.00
2018-09-15T04:27:19.613Z,100.00
2018-09-15T04:29:48.911Z,100.00
2018-09-15T04:32:18.216Z,100.00
2018-09-15T04:34:47.592Z,100.00
2018-09-15T04:37:16.836Z,100.00
2018-09-15T04:39:46.704Z,100.00
2018-09-15T04:42:16.105Z,100.00
2018-09-15T04:44:45.301Z,100.00
2018-09-15T04:47:14.630Z,100.00
2018-09-15T04:49:43.935Z,100.00
2018-09-15T04:52:13.255Z,100.00
2018-09-15T04:54:42.636Z,100.00
2018-09-15T04:57:12.061Z,100.00
2018-09-15T04:59:41.382Z,100.00
2018-09-15T05:02:10.681Z,100.00
2018-09-15T05:04:40.453Z,100.00
2018-09-15T05:07:10.126Z,100.00
2018-09-15T05:09:39.511Z,100.00
2018-09-15T05:12:09.091Z,100.00
2018-09-15T05:14:38.555Z,100.00
2018-09-15T05:17:07.616Z,100.00
2018-09-15T05:19:36.672Z,100.00
2018-09-15T05:22:05.780Z,100.00
2018-09-15T05:24:34.757Z,100.00
2018-09-15T05:27:04.962Z,100.00
2018-09-15T05:29:34.427Z,100.00
2018-09-15T05:32:04.183Z,100.00
2018-09-15T05:34:33.424Z,100.00
2018-09-15T05:37:02.565Z,100.00
2018-09-15T05:39:31.862Z,100.00
2018-09-15T05:42:01.081Z,100.00
2018-09-15T05:44:30.243Z,100.00
2018-09-15T05:46:59.290Z,100.00
2018-09-15T05:49:28.457Z,100.00
2018-09-15T05:51:57.652Z,100.00
2018-09-15T05:54:26.951Z,100.00
2018-09-15T05:57:02.798Z,100.00
2018-09-15T05:59:31.816Z,100.00
2018-09-15T06:02:01.049Z,100.00
2018-09-15T06:04:30.101Z,100.00
2018-09-15T06:06:59.207Z,100.00
2018-09-15T06:09:29.462Z,100.00
2018-09-15T06:11:58.862Z,100.00
2018-09-15T06:14:28.016Z,100.00
2018-09-15T06:16:57.179Z,100.00
2018-09-15T06:19:26.357Z,100.00
2018-09-15T06:21:55.366Z,100.00
2018-09-15T06:24:26.026Z,100.00
2018-09-15T06:26:56.671Z,100.00
2018-09-15T06:29:26.312Z,100.00
2018-09-15T06:31:56.253Z,100.00
2018-09-15T06:34:25.265Z,100.00
2018-09-15T06:36:54.253Z,100.00
2018-09-15T06:39:23.834Z,100.00
2018-09-15T06:41:53.218Z,100.00
2018-09-15T06:44:22.412Z,100.00
2018-09-15T06:46:51.571Z,98.68
2018-09-15T06:49:20.552Z,97.34
2018-09-15T06:51:49.637Z,96.98
2018-09-15T06:54:18.645Z,96.52
2018-09-15T06:56:47.867Z,95.94
2018-09-15T06:59:16.890Z,92.94
2018-09-15T07:01:46.064Z,92.53
2018-09-15T07:04:15.045Z,90.21
2018-09-15T07:06:44.831Z,88.26
2018-09-15T07:09:14.814Z,86.72
2018-09-15T07:11:43.883Z,86.10
2018-09-15T07:14:13.027Z,86.12
2018-09-15T07:16:42.150Z,82.12
2018-09-15T07:19:11.132Z,81.99
2018-09-15T07:21:40.249Z,81.69
2018-09-15T07:24:09.393Z,84.46
2018-09-15T07:26:38.631Z,82.19
2018-09-15T07:29:08.073Z,83.44
2018-09-15T07:31:37.178Z,81.07
2018-09-15T07:34:06.108Z,80.81
2018-09-15T07:36:35.197Z,81.08
2018-09-15T07:39:04.663Z,80.05
2018-09-15T07:41:33.709Z,83.55
2018-09-15T07:44:02.722Z,84.33
2018-09-15T07:46:31.729Z,84.24
2018-09-15T07:49:00.764Z,81.63
2018-09-15T07:51:30.036Z,83.37
2018-09-15T07:53:59.565Z,81.49
2018-09-15T07:56:28.712Z,81.23
2018-09-15T07:58:57.891Z,80.40
2018-09-15T08:01:27.740Z,82.19
2018-09-15T08:03:56.917Z,83.41
2018-09-15T08:06:25.944Z,84.28
2018-09-15T08:08:55.096Z,82.92
2018-09-15T08:11:24.327Z,83.21
2018-09-15T08:13:54.118Z,83.51
2018-09-15T08:16:24.146Z,83.31
2018-09-15T08:18:53.637Z,83.49
2018-09-15T08:21:23.281Z,82.44
2018-09-15T08:23:53.609Z,81.55
2018-09-15T08:26:22.971Z,74.93
2018-09-15T08:28:52.392Z,75.57
2018-09-15T08:31:22.104Z,73.24
2018-09-15T08:33:52.600Z,75.82
2018-09-15T08:36:21.948Z,74.87
2018-09-15T08:38:51.381Z,76.35
2018-09-15T08:41:20.975Z,72.91
2018-09-15T08:43:50.376Z,76.48
2018-09-15T08:46:19.774Z,75.52
2018-09-15T08:48:50.386Z,71.09
2018-09-15T08:51:19.745Z,73.33
2018-09-15T08:53:50.376Z,69.73
2018-09-15T08:56:19.775Z,70.55
2018-09-15T08:58:49.370Z,70.15
2018-09-15T09:01:18.851Z,67.54
2018-09-15T09:03:48.553Z,69.16
2018-09-15T09:06:18.063Z,63.86
2018-09-15T09:08:47.574Z,63.72
2018-09-15T09:11:17.286Z,68.75
2018-09-15T09:13:46.828Z,66.39
2018-09-15T09:16:16.308Z,69.31
2018-09-15T09:18:46.273Z,66.99
2018-09-15T09:21:17.613Z,69.08
2018-09-15T09:23:48.266Z,69.53
2018-09-15T09:26:17.785Z,69.91
2018-09-15T09:28:48.095Z,68.85
2018-09-15T09:31:17.581Z,66.67
2018-09-15T09:33:47.277Z,65.06
2018-09-15T09:36:16.892Z,62.11
2018-09-15T09:38:46.055Z,65.86
2018-09-15T09:41:15.211Z,63.47
2018-09-15T09:43:44.388Z,64.91
2018-09-15T09:46:13.801Z,66.40
2018-09-15T09:48:43.070Z,63.49
2018-09-15T09:51:12.560Z,62.74
2018-09-15T09:53:42.152Z,60.20
2018-09-15T09:56:11.211Z,63.73
2018-09-15T09:58:40.661Z,61.70
2018-09-15T10:01:14.741Z,59.25
2018-09-15T10:03:43.812Z,56.14
2018-09-15T10:06:13.270Z,59.27
2018-09-15T10:11:54.184Z,61.56
2018-09-15T10:14:23.893Z,59.54
2018-09-15T10:16:53.620Z,59.74
2018-09-15T10:19:22.987Z,58.95
2018-09-15T10:21:52.477Z,59.00
2018-09-15T10:24:21.705Z,55.97
2018-09-15T10:26:51.058Z,57.63
2018-09-15T10:29:20.602Z,58.53
2018-09-15T10:31:50.158Z,55.49
2018-09-15T10:34:19.607Z,54.17
2018-09-15T10:36:49.180Z,55.23
2018-09-15T10:39:18.522Z,54.74
2018-09-15T10:41:48.058Z,53.19
2018-09-15T10:44:17.595Z,52.65
2018-09-15T10:46:46.841Z,52.39
2018-09-15T10:49:16.284Z,54.05
2018-09-15T10:51:45.833Z,52.24
2018-09-15T10:54:15.260Z,52.59
2018-09-15T10:56:44.808Z,50.50
2018-09-15T10:59:14.293Z,51.63
2018-09-15T11:01:44.040Z,53.56
2018-09-15T11:04:13.197Z,53.32
2018-09-15T11:06:43.012Z,52.78
2018-09-15T11:09:12.190Z,53.98
2018-09-15T11:11:41.995Z,55.04
2018-09-15T11:14:11.148Z,55.04
2018-09-15T11:16:40.262Z,54.13
2018-09-15T11:19:09.318Z,54.32
2018-09-15T11:21:38.425Z,53.33
2018-09-15T11:24:08.328Z,54.40
2018-09-15T11:26:37.529Z,54.33
2018-09-15T11:29:07.170Z,52.52
2018-09-15T11:31:36.212Z,50.65
2018-09-15T11:34:05.573Z,50.17
2018-09-15T11:36:35.221Z,49.52
2018-09-15T11:39:06.228Z,46.27
2018-09-15T11:41:35.377Z,45.48
2018-09-15T11:44:04.594Z,43.79
2018-09-15T11:46:33.608Z,44.06
2018-09-15T11:49:03.402Z,45.22
2018-09-15T11:51:32.800Z,47.14
2018-09-15T11:54:02.430Z,46.56
2018-09-15T11:56:31.885Z,46.03
2018-09-15T11:59:02.039Z,46.58
2018-09-15T12:01:31.764Z,45.77
2018-09-15T12:04:01.133Z,45.69
2018-09-15T12:06:30.365Z,47.61
2018-09-15T12:08:59.449Z,47.56
2018-09-15T12:11:28.541Z,47.33
2018-09-15T12:13:58.588Z,46.96
2018-09-15T12:16:28.552Z,48.47
2018-09-15T12:18:58.446Z,47.89
2018-09-15T12:21:27.531Z,48.74
2018-09-15T12:23:56.607Z,48.42
2018-09-15T12:26:25.713Z,46.08
2018-09-15T12:28:54.850Z,47.59
2018-09-15T12:31:26.087Z,46.97
2018-09-15T12:33:55.145Z,46.26
2018-09-15T12:36:24.390Z,46.20
2018-09-15T12:38:53.481Z,45.72
2018-09-15T12:41:22.533Z,44.33
2018-09-15T12:43:51.707Z,45.86
2018-09-15T12:46:21.170Z,45.31
2018-09-15T12:48:50.714Z,47.54
2018-09-15T12:51:20.614Z,46.64
2018-09-15T12:53:51.047Z,46.42
2018-09-15T12:56:21.014Z,46.87
2018-09-15T12:58:51.254Z,45.85
2018-09-15T13:01:21.365Z,45.20
2018-09-15T13:03:51.020Z,45.78
2018-09-15T13:06:21.731Z,44.21
2018-09-15T13:08:51.661Z,45.70
2018-09-15T13:11:21.362Z,44.90
2018-09-15T13:13:50.725Z,46.04
2018-09-15T13:16:19.874Z,44.02
2018-09-15T13:18:49.477Z,44.86
2018-09-15T13:21:19.515Z,47.58
2018-09-15T13:23:49.135Z,44.83
2018-09-15T13:26:18.572Z,45.18
2018-09-15T13:28:48.345Z,47.39
2018-09-15T13:31:17.708Z,48.70
2018-09-15T13:33:47.330Z,47.30
2018-09-15T13:36:16.816Z,46.20
2018-09-15T13:38:46.616Z,50.13
2018-09-15T13:41:15.856Z,51.30
2018-09-15T13:43:45.344Z,51.43
2018-09-15T13:46:14.719Z,46.40
2018-09-15T13:48:45.769Z,46.79
2018-09-15T13:51:15.287Z,48.92
2018-09-15T13:53:45.133Z,50.72
2018-09-15T13:56:14.961Z,51.73
2018-09-15T13:58:45.028Z,53.22
2018-09-15T14:01:14.894Z,52.22
2018-09-15T14:03:44.428Z,51.87
2018-09-15T14:06:14.123Z,50.49
2018-09-15T14:08:45.203Z,51.58
2018-09-15T14:11:14.358Z,51.42
2018-09-15T14:13:43.439Z,53.08
2018-09-15T14:16:12.536Z,55.38
2018-09-15T14:18:44.994Z,56.59
2018-09-15T14:21:14.070Z,57.70
2018-09-15T14:23:44.247Z,57.51
2018-09-15T14:26:14.178Z,57.28
2018-09-15T14:28:44.971Z,55.12
2018-09-15T14:31:14.075Z,54.15
2018-09-15T14:33:43.123Z,53.68
2018-09-15T14:36:12.238Z,53.84
2018-09-15T14:38:45.217Z,54.72
2018-09-15T14:41:14.284Z,54.53
2018-09-15T14:43:44.560Z,54.49
2018-09-15T14:46:14.390Z,54.52
2018-09-15T14:48:44.069Z,54.89
2018-09-15T14:51:13.422Z,54.08
2018-09-15T14:53:42.837Z,56.56
2018-09-15T14:56:12.093Z,56.23
2018-09-15T14:58:42.985Z,55.22
2018-09-15T15:01:13.569Z,56.60
2018-09-15T15:03:42.995Z,57.44
2018-09-15T15:06:13.824Z,56.43
2018-09-15T15:08:44.245Z,56.60
2018-09-15T15:11:13.957Z,57.53
2018-09-15T15:13:43.197Z,58.88
2018-09-15T15:16:12.282Z,58.41
2018-09-15T15:18:43.461Z,60.05
2018-09-15T15:21:12.507Z,60.84
2018-09-15T15:23:41.563Z,60.69
2018-09-15T15:26:10.709Z,60.27
2018-09-15T15:28:39.887Z,59.29
2018-09-15T15:31:09.847Z,60.10
2018-09-15T15:33:38.843Z,60.11
2018-09-15T15:36:07.929Z,57.63
2018-09-15T15:38:37.006Z,58.62
2018-09-15T15:41:06.027Z,60.04
2018-09-15T15:43:35.140Z,59.10
2018-09-15T15:46:04.172Z,59.63
2018-09-15T15:48:33.373Z,60.55
2018-09-15T15:51:02.555Z,59.90
2018-09-15T15:53:31.557Z,59.76
2018-09-15T15:56:00.692Z,59.05
2018-09-15T15:58:30.808Z,61.47
2018-09-15T16:00:59.881Z,58.58
2018-09-15T16:03:28.870Z,58.79
2018-09-15T16:05:57.881Z,59.25
2018-09-15T16:08:27.013Z,60.25
2018-09-15T16:10:56.149Z,61.36
2018-09-15T16:13:25.192Z,62.54
2018-09-15T16:15:54.479Z,63.08
2018-09-15T16:18:23.655Z,63.91
2018-09-15T16:20:52.932Z,64.18
2018-09-15T16:23:22.169Z,63.56
2018-09-15T16:25:51.483Z,64.06
2018-09-15T16:28:20.840Z,64.24
2018-09-15T16:30:50.422Z,63.19
2018-09-15T16:33:20.640Z,65.01
2018-09-15T16:35:50.134Z,64.04
2018-09-15T16:38:19.676Z,63.83
2018-09-15T16:40:49.755Z,64.47
2018-09-15T16:43:19.090Z,64.13
2018-09-15T16:45:48.794Z,65.31
2018-09-15T16:48:18.588Z,65.08
2018-09-15T16:50:48.030Z,65.06
2018-09-15T16:53:19.410Z,65.36
2018-09-15T16:55:49.036Z,66.04
2018-09-15T16:58:18.437Z,66.25
2018-09-15T17:00:48.767Z,67.60
2018-09-15T17:03:18.131Z,70.28
2018-09-15T17:05:48.450Z,68.16
2018-09-15T17:08:17.598Z,68.39
2018-09-15T17:10:49.345Z,68.77
2018-09-15T17:13:19.635Z,67.48
2018-09-15T17:15:49.540Z,68.13
2018-09-15T17:18:19.068Z,69.07
2018-09-15T17:20:50.971Z,68.06
2018-09-15T17:23:20.660Z,68.38
2018-09-15T17:25:50.099Z,68.51
2018-09-15T17:28:22.254Z,68.13
2018-09-15T17:30:52.042Z,68.80
2018-09-15T17:33:24.220Z,69.04
2018-09-15T17:35:54.222Z,69.67
2018-09-15T17:38:24.421Z,68.57
2018-09-15T17:40:55.037Z,68.26
2018-09-15T17:43:24.424Z,67.85
2018-09-15T17:45:53.496Z,68.32
2018-09-15T17:48:22.738Z,68.42
2018-09-15T17:50:52.083Z,66.68
2018-09-15T17:53:21.456Z,67.89
2018-09-15T17:55:51.519Z,67.24
2018-09-15T17:58:21.993Z,69.38
2018-09-15T18:00:51.839Z,67.49
2018-09-15T18:03:22.719Z,67.11
2018-09-15T18:05:53.754Z,67.98
2018-09-15T18:08:23.286Z,68.36
2018-09-15T18:10:53.792Z,68.75
2018-09-15T18:13:24.640Z,68.29
2018-09-15T18:15:54.285Z,70.16
2018-09-15T18:18:23.659Z,71.55
2018-09-15T18:20:54.020Z,72.87
2018-09-15T18:23:23.872Z,72.44
2018-09-15T18:25:53.304Z,72.96
2018-09-15T18:28:23.592Z,71.89
2018-09-15T18:30:53.548Z,70.55
2018-09-15T18:33:23.123Z,70.60
2018-09-15T18:35:52.490Z,71.59
2018-09-15T18:38:23.291Z,72.44
2018-09-15T18:40:54.311Z,74.95
2018-09-15T18:43:23.512Z,75.83
2018-09-15T18:45:52.791Z,76.30
2018-09-15T18:48:22.630Z,77.95
2018-09-15T18:50:53.266Z,77.70
2018-09-15T18:53:27.253Z,77.75
2018-09-15T18:55:56.862Z,77.14
2018-09-15T18:58:27.351Z,76.99
2018-09-15T19:00:56.903Z,78.26
2018-09-15T19:03:26.046Z,77.60
2018-09-15T19:05:55.240Z,76.90
2018-09-15T19:08:25.345Z,77.81
2018-09-15T19:11:01.423Z,78.30
2018-09-15T19:13:32.198Z,78.59
2018-09-15T19:16:01.735Z,78.88
2018-09-15T19:18:31.286Z,79.17
2018-09-15T19:21:02.495Z,79.82
2018-09-15T19:23:33.682Z,80.45
2018-09-15T19:26:04.160Z,79.68
2018-09-15T19:28:33.956Z,80.27
2018-09-15T19:31:04.416Z,79.76
2018-09-15T19:33:36.329Z,79.82
2018-09-15T19:36:08.078Z,80.02
2018-09-15T19:38:39.117Z,79.98
2018-09-15T19:41:10.551Z,81.00
2018-09-15T19:43:40.709Z,81.26
2018-09-15T19:46:11.270Z,81.05
2018-09-15T19:48:40.609Z,82.19
2018-09-15T19:51:11.019Z,83.13
2018-09-15T19:53:41.352Z,83.44
2018-09-15T19:56:11.824Z,83.26
2018-09-15T19:58:41.129Z,83.37
2018-09-15T20:01:10.289Z,83.59
2018-09-15T20:03:39.473Z,82.61
2018-09-15T20:06:10.045Z,83.04
2018-09-15T20:08:40.085Z,84.28
2018-09-15T20:11:09.473Z,85.89
2018-09-15T20:13:39.003Z,84.78
2018-09-15T20:16:07.056Z,85.04
2018-09-15T20:18:34.850Z,84.85
2018-09-15T20:21:02.693Z,85.65
2018-09-15T20:23:32.072Z,87.10
2018-09-15T20:26:01.976Z,86.26
2018-09-15T20:28:31.448Z,88.24
2018-09-15T20:31:00.893Z,87.28
2018-09-15T20:33:30.418Z,87.71
2018-09-15T20:35:59.920Z,87.77
2018-09-15T20:38:30.530Z,88.13
2018-09-15T20:41:01.075Z,86.63
2018-09-15T20:43:32.027Z,85.72
2018-09-15T20:46:01.457Z,85.54
2018-09-15T20:48:31.134Z,85.33
2018-09-15T20:51:00.657Z,86.12
2018-09-15T20:53:31.688Z,85.61
2018-09-15T20:56:01.190Z,86.04
2018-09-15T20:58:32.038Z,86.69
2018-09-15T21:01:02.174Z,87.68
2018-09-15T21:03:32.557Z,87.98
2018-09-15T21:06:02.541Z,88.33
2018-09-15T21:08:32.672Z,88.51
2018-09-15T21:11:03.252Z,87.37
2018-09-15T21:13:32.858Z,87.30
2018-09-15T21:16:02.474Z,88.88
2018-09-15T21:18:31.829Z,88.76
2018-09-15T21:21:01.354Z,88.87
2018-09-15T21:23:31.119Z,89.52
2018-09-15T21:26:01.234Z,88.15
2018-09-15T21:28:31.022Z,88.94
2018-09-15T21:31:00.960Z,89.17
2018-09-15T21:33:32.346Z,88.93
2018-09-15T21:36:03.505Z,88.87
2018-09-15T21:38:33.717Z,89.90
2018-09-15T21:41:05.851Z,89.50
2018-09-15T21:43:36.870Z,90.73
2018-09-15T21:46:06.795Z,91.19
2018-09-15T21:48:36.201Z,91.62
2018-09-15T21:51:05.905Z,91.95
2018-09-15T21:53:35.383Z,92.20
2018-09-15T21:56:04.807Z,90.36
2018-09-15T21:58:34.233Z,91.44
2018-09-15T22:01:04.771Z,91.53
2018-09-15T22:03:39.062Z,92.12
2018-09-15T22:06:09.535Z,92.61
2018-09-15T22:08:38.904Z,93.31
2018-09-15T22:11:08.125Z,92.91
2018-09-15T22:13:38.148Z,93.04
2018-09-15T22:16:07.311Z,92.52
2018-09-15T22:18:38.510Z,91.84
2018-09-15T22:21:07.671Z,93.68
2018-09-15T22:23:36.709Z,92.96
2018-09-15T22:26:05.751Z,92.98
2018-09-15T22:28:35.285Z,92.51
2018-09-15T22:31:04.601Z,92.11
2018-09-15T22:33:35.152Z,92.30
2018-09-15T22:36:05.480Z,91.81
2018-09-15T22:38:36.970Z,91.34
2018-09-15T22:41:07.477Z,93.05
2018-09-15T22:43:37.524Z,93.09
2018-09-15T22:46:06.960Z,94.55
2018-09-15T22:48:37.445Z,94.30
2018-09-15T22:51:07.199Z,94.05
2018-09-15T22:53:38.661Z,93.80
2018-09-15T22:56:08.485Z,92.64
2018-09-15T22:58:39.331Z,92.95
2018-09-15T23:01:08.608Z,92.90
2018-09-15T23:03:37.933Z,92.75
2018-09-15T23:06:08.575Z,92.09
2018-09-15T23:08:38.247Z,93.48
2018-09-15T23:11:08.226Z,94.92
2018-09-15T23:13:37.690Z,94.94
2018-09-15T23:16:07.334Z,95.78
2018-09-15T23:18:37.076Z,94.31
2018-09-15T23:21:06.840Z,95.37
2018-09-15T23:23:36.908Z,95.32
2018-09-15T23:26:06.613Z,94.07
2018-09-15T23:28:36.033Z,93.46
2018-09-15T23:31:05.542Z,93.69
2018-09-15T23:33:35.430Z,93.38
2018-09-15T23:36:05.101Z,92.65
2018-09-15T23:38:34.480Z,93.78
2018-09-15T23:41:04.130Z,94.16
2018-09-15T23:43:34.772Z,97.88
2018-09-15T23:46:05.777Z,97.15
2018-09-15T23:48:36.416Z,96.54
2018-09-15T23:51:06.547Z,97.00
2018-09-15T23:53:36.041Z,96.61
2018-09-15T23:56:05.399Z,96.12
2018-09-15T23:58:34.925Z,96.43
